createdAt,value
2019-06-08T00:00:08.135Z,0.00
2019-06-08T00:01:08.109Z,0.00
2019-06-08T00:02:08.140Z,0.00
2019-06-08T00:03:08.109Z,0.00
2019-06-08T00:04:08.109Z,0.00
2019-06-08T00:05:08.087Z,0.00
2019-06-08T00:06:08.058Z,0.00
2019-06-08T00:07:08.040Z,0.00
2019-06-08T00:08:08.067Z,0.00
2019-06-08T00:09:08.019Z,0.00
2019-06-08T00:10:08.017Z,0.00
2019-06-08T00:11:08.000Z,0.00
2019-06-08T00:12:07.996Z,0.00
2019-06-08T00:13:08.018Z,0.00
2019-06-08T00:14:07.976Z,0.00
2019-06-08T00:15:07.969Z,0.00
2019-06-08T00:16:07.954Z,0.00
2019-06-08T00:17:07.930Z,0.00
2019-06-08T00:18:07.974Z,0.00
2019-06-08T00:19:07.921Z,0.00
2019-06-08T00:20:07.907Z,0.00
2019-06-08T00:21:07.901Z,0.00
2019-06-08T00:22:07.885Z,0.00
2019-06-08T00:23:07.877Z,0.00
2019-06-08T00:24:07.891Z,0.00
2019-06-08T00:25:07.859Z,0.00
2019-06-08T00:26:07.857Z,0.00
2019-06-08T00:27:07.843Z,0.00
2019-06-08T00:28:07.825Z,0.00
2019-06-08T00:29:07.803Z,0.00
2019-06-08T00:30:07.851Z,0.00
2019-06-08T00:31:07.801Z,0.00
2019-06-08T00:32:07.793Z,0.00
2019-06-08T00:33:07.766Z,0.00
2019-06-08T00:34:07.765Z,0.00
2019-06-08T00:35:07.783Z,0.00
2019-06-08T00:36:07.742Z,0.00
2019-06-08T00:37:07.720Z,0.00
2019-06-08T00:38:07.729Z,0.00
2019-06-08T00:39:07.700Z,0.00
2019-06-08T00:40:07.729Z,0.00
2019-06-08T00:41:07.681Z,0.00
2019-06-08T00:42:07.683Z,0.00
2019-06-08T00:43:07.655Z,0.00
2019-06-08T00:44:07.660Z,0.00
2019-06-08T00:45:07.650Z,0.00
2019-06-08T00:46:07.649Z,0.00
2019-06-08T00:47:07.628Z,0.00
2019-06-08T00:48:07.615Z,0.00
2019-06-08T00:49:07.610Z,0.00
2019-06-08T00:50:07.597Z,0.00
2019-06-08T00:51:07.574Z,0.00
2019-06-08T00:52:07.588Z,0.00
2019-06-08T00:53:07.576Z,0.00
2019-06-08T00:54:07.548Z,0.00
2019-06-08T00:55:07.540Z,0.00
2019-06-08T00:56:07.541Z,0.00
2019-06-08T00:57:07.540Z,0.00
2019-06-08T00:58:07.491Z,0.00
2019-06-08T00:59:07.499Z,0.00
2019-06-08T01:00:11.044Z,0.00
2019-06-08T01:01:07.469Z,0.00
2019-06-08T01:02:07.477Z,0.00
2019-06-08T01:03:07.471Z,0.00
2019-06-08T01:04:07.443Z,0.00
2019-06-08T01:05:07.444Z,0.00
2019-06-08T01:06:07.410Z,0.00
2019-06-08T01:07:07.402Z,0.00
2019-06-08T01:08:07.478Z,0.00
2019-06-08T01:09:07.379Z,0.00
2019-06-08T01:10:07.370Z,0.00
2019-06-08T01:11:07.388Z,0.00
2019-06-08T01:12:07.365Z,0.00
2019-06-08T01:13:07.333Z,0.00
2019-06-08T01:14:07.353Z,0.00
2019-06-08T01:15:07.344Z,0.00
2019-06-08T01:16:07.302Z,0.00
2019-06-08T01:17:07.290Z,0.00
2019-06-08T01:18:07.302Z,0.00
2019-06-08T01:19:07.304Z,0.00
2019-06-08T01:20:07.270Z,0.00
2019-06-08T01:21:07.259Z,0.00
2019-06-08T01:22:07.243Z,0.00
2019-06-08T01:23:07.222Z,0.00
2019-06-08T01:24:07.237Z,0.00
2019-06-08T01:25:07.209Z,0.00
2019-06-08T01:26:07.198Z,0.00
2019-06-08T01:27:07.206Z,0.00
2019-06-08T01:28:07.172Z,0.00
2019-06-08T01:29:07.188Z,0.00
2019-06-08T01:30:07.162Z,0.00
2019-06-08T01:31:07.151Z,0.00
2019-06-08T01:32:07.137Z,0.00
2019-06-08T01:33:07.140Z,0.00
2019-06-08T01:34:07.180Z,0.00
2019-06-08T01:35:07.107Z,0.00
2019-06-08T01:36:07.099Z,0.00
2019-06-08T01:37:07.106Z,0.00
2019-06-08T01:38:07.086Z,0.00
2019-06-08T01:39:07.058Z,0.00
2019-06-08T01:40:07.089Z,0.00
2019-06-08T01:41:07.038Z,0.00
2019-06-08T01:42:07.029Z,0.00
2019-06-08T01:43:07.042Z,0.00
2019-06-08T01:44:06.996Z,0.00
2019-06-08T01:45:06.999Z,0.00
2019-06-08T01:46:07.004Z,0.00
2019-06-08T01:47:06.980Z,0.00
2019-06-08T01:48:19.372Z,0.00
2019-06-08T01:49:07.983Z,0.00
2019-06-08T01:50:06.975Z,0.00
2019-06-08T01:51:06.952Z,0.00
2019-06-08T01:52:06.922Z,0.00
2019-06-08T01:53:06.920Z,0.00
2019-06-08T01:54:06.891Z,0.00
2019-06-08T01:55:06.915Z,0.00
2019-06-08T01:56:06.921Z,0.00
2019-06-08T01:57:06.859Z,0.00
2019-06-08T01:58:06.862Z,0.00
2019-06-08T01:59:06.842Z,0.00
2019-06-08T02:00:29.149Z,0.00
2019-06-08T02:01:07.868Z,0.00
2019-06-08T02:02:06.823Z,0.00
2019-06-08T02:03:06.815Z,0.00
2019-06-08T02:04:06.824Z,0.00
2019-06-08T02:05:06.793Z,0.00
2019-06-08T02:06:06.758Z,0.00
2019-06-08T02:07:06.819Z,0.00
2019-06-08T02:08:06.770Z,0.00
2019-06-08T02:09:06.756Z,0.00
2019-06-08T02:10:06.728Z,0.00
2019-06-08T02:11:06.707Z,0.00
2019-06-08T02:12:06.701Z,0.00
2019-06-08T02:13:08.766Z,0.00
2019-06-08T02:14:06.705Z,0.00
2019-06-08T02:15:06.698Z,0.00
2019-06-08T02:16:06.668Z,0.00
2019-06-08T02:17:06.653Z,0.00
2019-06-08T02:18:06.670Z,4.00
2019-06-08T02:19:06.635Z,4.00
2019-06-08T02:20:06.651Z,0.00
2019-06-08T02:21:06.606Z,4.00
2019-06-08T02:22:06.618Z,4.00
2019-06-08T02:23:06.621Z,4.00
2019-06-08T02:24:06.572Z,8.00
2019-06-08T02:25:06.567Z,4.00
2019-06-08T02:26:06.565Z,8.00
2019-06-08T02:27:06.556Z,4.00
2019-06-08T02:28:06.532Z,8.00
2019-06-08T02:29:06.569Z,8.00
2019-06-08T02:30:06.545Z,8.00
2019-06-08T02:31:06.501Z,12.00
2019-06-08T02:32:06.516Z,12.00
2019-06-08T02:33:06.495Z,16.00
2019-06-08T02:34:06.528Z,16.00
2019-06-08T02:35:06.465Z,20.00
2019-06-08T02:36:06.442Z,20.00
2019-06-08T02:37:06.442Z,24.00
2019-06-08T02:38:06.426Z,28.00
2019-06-08T02:39:06.424Z,32.00
2019-06-08T02:40:06.453Z,36.00
2019-06-08T02:41:06.401Z,40.00
2019-06-08T02:42:06.404Z,44.00
2019-06-08T02:43:06.384Z,48.00
2019-06-08T02:44:06.368Z,56.00
2019-06-08T02:45:06.366Z,64.00
2019-06-08T02:46:06.369Z,72.00
2019-06-08T02:47:06.345Z,80.00
2019-06-08T02:48:06.323Z,84.00
2019-06-08T02:49:06.316Z,96.00
2019-06-08T02:50:06.292Z,104.00
2019-06-08T02:51:06.314Z,116.00
2019-06-08T02:52:06.278Z,128.00
2019-06-08T02:53:06.277Z,140.00
2019-06-08T02:54:06.255Z,156.00
2019-06-08T02:55:06.245Z,172.00
2019-06-08T02:56:06.253Z,188.00
2019-06-08T02:57:06.243Z,200.00
2019-06-08T02:58:06.215Z,220.00
2019-06-08T02:59:06.234Z,240.00
2019-06-08T03:00:06.195Z,264.00
2019-06-08T03:01:06.208Z,284.00
2019-06-08T03:02:06.169Z,308.00
2019-06-08T03:03:06.153Z,328.00
2019-06-08T03:04:06.147Z,348.00
2019-06-08T03:05:06.158Z,372.00
2019-06-08T03:06:06.129Z,400.00
2019-06-08T03:07:06.132Z,428.00
2019-06-08T03:08:06.104Z,456.00
2019-06-08T03:09:06.106Z,484.00
2019-06-08T03:10:06.083Z,512.00
2019-06-08T03:11:06.106Z,544.00
2019-06-08T03:12:06.089Z,576.00
2019-06-08T03:13:06.045Z,608.00
2019-06-08T03:14:06.047Z,640.00
2019-06-08T03:15:06.018Z,672.00
2019-06-08T03:16:06.029Z,704.00
2019-06-08T03:17:06.036Z,740.00
2019-06-08T03:18:06.075Z,772.00
2019-06-08T03:19:21.094Z,808.00
2019-06-08T03:20:06.982Z,848.00
2019-06-08T03:21:05.967Z,892.00
2019-06-08T03:22:05.959Z,940.00
2019-06-08T03:23:05.979Z,1004.00
2019-06-08T03:24:05.930Z,1092.00
2019-06-08T03:25:05.917Z,1188.00
2019-06-08T03:26:05.911Z,1292.00
2019-06-08T03:27:05.907Z,1412.00
2019-06-08T03:28:05.890Z,1556.00
2019-06-08T03:29:05.928Z,1700.00
2019-06-08T03:30:16.606Z,1772.00
2019-06-08T03:31:06.884Z,1720.00
2019-06-08T03:32:05.858Z,1640.00
2019-06-08T03:33:05.872Z,1608.00
2019-06-08T03:34:05.861Z,1636.00
2019-06-08T03:35:05.831Z,1716.00
2019-06-08T03:36:05.805Z,1816.00
2019-06-08T03:37:05.809Z,1904.00
2019-06-08T03:38:05.792Z,1984.00
2019-06-08T03:39:05.804Z,2072.00
2019-06-08T03:40:05.801Z,2172.00
2019-06-08T03:41:05.763Z,2228.00
2019-06-08T03:42:05.744Z,2268.00
2019-06-08T03:43:05.742Z,2300.00
2019-06-08T03:44:05.729Z,2256.00
2019-06-08T03:45:05.758Z,2276.00
2019-06-08T03:46:05.712Z,2408.00
2019-06-08T03:47:05.671Z,2744.00
2019-06-08T03:48:05.681Z,3204.00
2019-06-08T03:49:05.669Z,3704.00
2019-06-08T03:50:05.663Z,3972.00
2019-06-08T03:51:05.665Z,3940.00
2019-06-08T03:52:05.649Z,3792.00
2019-06-08T03:53:05.663Z,3716.00
2019-06-08T03:54:05.623Z,3596.00
2019-06-08T03:55:05.600Z,3624.00
2019-06-08T03:56:05.616Z,3712.00
2019-06-08T03:57:05.571Z,3740.00
2019-06-08T03:58:05.576Z,3816.00
2019-06-08T03:59:05.561Z,3940.00
2019-06-08T04:00:12.874Z,3988.00
2019-06-08T04:01:06.566Z,4008.00
2019-06-08T04:02:05.534Z,4072.00
2019-06-08T04:03:05.521Z,4140.00
2019-06-08T04:04:05.512Z,4144.00
2019-06-08T04:05:05.487Z,4044.00
2019-06-08T04:06:05.496Z,3916.00
2019-06-08T04:07:05.498Z,3844.00
2019-06-08T04:08:05.468Z,3752.00
2019-06-08T04:09:05.459Z,3632.00
2019-06-08T04:10:05.445Z,3588.00
2019-06-08T04:11:05.436Z,3580.00
2019-06-08T04:12:05.445Z,3632.00
2019-06-08T04:13:05.409Z,3772.00
2019-06-08T04:14:05.407Z,3888.00
2019-06-08T04:15:05.383Z,3912.00
2019-06-08T04:16:05.373Z,3948.00
2019-06-08T04:17:05.362Z,3976.00
2019-06-08T04:18:05.375Z,4040.00
2019-06-08T04:19:05.331Z,4140.00
2019-06-08T04:20:11.116Z,4280.00
2019-06-08T04:21:06.316Z,4580.00
2019-06-08T04:22:05.332Z,5036.00
2019-06-08T04:23:05.340Z,5428.00
2019-06-08T04:24:05.306Z,5872.00
2019-06-08T04:25:05.297Z,6292.00
2019-06-08T04:26:05.261Z,6584.00
2019-06-08T04:27:05.252Z,6844.00
2019-06-08T04:28:05.307Z,6952.00
2019-06-08T04:29:05.258Z,6788.00
2019-06-08T04:30:05.236Z,6384.00
2019-06-08T04:31:05.216Z,5992.00
2019-06-08T04:32:05.208Z,5684.00
2019-06-08T04:33:05.207Z,5540.00
2019-06-08T04:34:05.210Z,5568.00
2019-06-08T04:35:05.176Z,5836.00
2019-06-08T04:36:05.168Z,6224.00
2019-06-08T04:37:05.167Z,6552.00
2019-06-08T04:38:05.146Z,6804.00
2019-06-08T04:39:05.156Z,7104.00
2019-06-08T04:40:05.118Z,7316.00
2019-06-08T04:41:05.107Z,7296.00
2019-06-08T04:42:05.092Z,7116.00
2019-06-08T04:43:05.114Z,6940.00
2019-06-08T04:44:05.117Z,6580.00
2019-06-08T04:45:05.056Z,6076.00
2019-06-08T04:46:05.062Z,5524.00
2019-06-08T04:47:05.034Z,5008.00
2019-06-08T04:48:09.325Z,4528.00
2019-06-08T04:49:05.043Z,4092.00
2019-06-08T04:50:20.881Z,3844.00
2019-06-08T04:51:06.005Z,3664.00
2019-06-08T04:52:04.997Z,3564.00
2019-06-08T04:53:04.994Z,3544.00
2019-06-08T04:54:04.970Z,3580.00
2019-06-08T04:55:04.987Z,3648.00
2019-06-08T04:56:04.948Z,3708.00
2019-06-08T04:57:04.935Z,3912.00
2019-06-08T04:58:04.933Z,3948.00
2019-06-08T04:59:04.969Z,4096.00
2019-06-08T05:00:11.643Z,4096.00
2019-06-08T05:01:05.914Z,4440.00
2019-06-08T05:02:04.882Z,4780.00
2019-06-08T05:03:04.872Z,4380.00
2019-06-08T05:04:04.856Z,4416.00
2019-06-08T05:05:04.855Z,4592.00
2019-06-08T05:06:04.888Z,4648.00
2019-06-08T05:07:04.827Z,5180.00
2019-06-08T05:08:04.832Z,5784.00
2019-06-08T05:09:04.819Z,5036.00
2019-06-08T05:10:04.809Z,4632.00
2019-06-08T05:11:04.809Z,4676.00
2019-06-08T05:12:04.792Z,5032.00
2019-06-08T05:13:04.778Z,5000.00
2019-06-08T05:14:04.815Z,4784.00
2019-06-08T05:15:04.755Z,5760.00
2019-06-08T05:16:04.728Z,5128.00
2019-06-08T05:17:04.746Z,6160.00
2019-06-08T05:18:04.724Z,6132.00
2019-06-08T05:19:04.720Z,6144.00
2019-06-08T05:20:04.698Z,6164.00
2019-06-08T05:21:04.684Z,6188.00
2019-06-08T05:22:04.665Z,6208.00
2019-06-08T05:23:04.709Z,6236.00
2019-06-08T05:24:04.668Z,6276.00
2019-06-08T05:25:04.649Z,6316.00
2019-06-08T05:26:04.627Z,6336.00
2019-06-08T05:27:04.605Z,6352.00
2019-06-08T05:28:04.649Z,6372.00
2019-06-08T05:29:04.585Z,6400.00
2019-06-08T05:30:08.868Z,6428.00
2019-06-08T05:31:04.576Z,6480.00
2019-06-08T05:32:04.572Z,6536.00
2019-06-08T05:33:04.595Z,6568.00
2019-06-08T05:34:04.536Z,6588.00
2019-06-08T05:35:04.521Z,6620.00
2019-06-08T05:36:04.517Z,6644.00
2019-06-08T05:37:04.493Z,6672.00
2019-06-08T05:38:04.534Z,6664.00
2019-06-08T05:39:04.503Z,6660.00
2019-06-08T05:40:04.479Z,6672.00
2019-06-08T05:41:04.461Z,6704.00
2019-06-08T05:42:04.458Z,6720.00
2019-06-08T05:43:04.435Z,6744.00
2019-06-08T05:44:04.453Z,6784.00
2019-06-08T05:45:04.456Z,6812.00
2019-06-08T05:46:04.458Z,6824.00
2019-06-08T05:47:04.417Z,6852.00
2019-06-08T05:48:04.390Z,6872.00
2019-06-08T05:49:04.406Z,6904.00
2019-06-08T05:50:04.399Z,6932.00
2019-06-08T05:51:04.623Z,6960.00
2019-06-08T05:52:04.360Z,6988.00
2019-06-08T05:53:04.330Z,7028.00
2019-06-08T05:54:04.318Z,7056.00
2019-06-08T05:55:04.347Z,7088.00
2019-06-08T05:56:04.297Z,7096.00
2019-06-08T05:57:04.301Z,7124.00
2019-06-08T05:58:04.296Z,7148.00
2019-06-08T05:59:04.272Z,7168.00
2019-06-08T06:00:08.790Z,7188.00
2019-06-08T06:01:05.244Z,7244.00
2019-06-08T06:02:04.234Z,7308.00
2019-06-08T06:03:04.216Z,7364.00
2019-06-08T06:04:04.222Z,7408.00
2019-06-08T06:05:04.220Z,7460.00
2019-06-08T06:06:04.207Z,7496.00
2019-06-08T06:07:04.206Z,7572.00
2019-06-08T06:08:16.053Z,7616.00
2019-06-08T06:09:05.154Z,7680.00
2019-06-08T06:10:04.150Z,7764.00
2019-06-08T06:11:04.221Z,7832.00
2019-06-08T06:12:04.134Z,7912.00
2019-06-08T06:13:04.105Z,8056.00
2019-06-08T06:14:04.106Z,8236.00
2019-06-08T06:15:04.108Z,8456.00
2019-06-08T06:16:04.102Z,8596.00
2019-06-08T06:17:04.070Z,8688.00
2019-06-08T06:18:04.106Z,8792.00
2019-06-08T06:19:04.043Z,9676.00
2019-06-08T06:20:04.047Z,11240.00
2019-06-08T06:21:10.817Z,12580.00
2019-06-08T06:22:05.020Z,12892.00
2019-06-08T06:23:04.046Z,13060.00
2019-06-08T06:24:04.000Z,15856.00
2019-06-08T06:25:03.982Z,20800.00
2019-06-08T06:26:04.005Z,24224.00
2019-06-08T06:27:03.984Z,23520.00
2019-06-08T06:28:06.233Z,23936.00
2019-06-08T06:29:03.944Z,24192.00
2019-06-08T06:30:03.940Z,23936.00
2019-06-08T06:31:03.933Z,24064.00
2019-06-08T06:32:03.920Z,23968.00
2019-06-08T06:33:03.902Z,22944.00
2019-06-08T06:34:03.881Z,23232.00
2019-06-08T06:35:03.919Z,23584.00
2019-06-08T06:36:03.871Z,23040.00
2019-06-08T06:37:03.920Z,21856.00
2019-06-08T06:38:03.905Z,20736.00
2019-06-08T06:39:03.831Z,20768.00
2019-06-08T06:40:03.865Z,21312.00
2019-06-08T06:41:03.913Z,22144.00
2019-06-08T06:42:03.847Z,23968.00
2019-06-08T06:43:03.798Z,24704.00
2019-06-08T06:44:03.782Z,23968.00
2019-06-08T06:45:03.778Z,24256.00
2019-06-08T06:46:03.748Z,24256.00
2019-06-08T06:47:03.739Z,24544.00
2019-06-08T06:48:03.793Z,25472.00
2019-06-08T06:49:03.728Z,25696.00
2019-06-08T06:50:03.704Z,25056.00
2019-06-08T06:51:03.711Z,24128.00
2019-06-08T06:52:03.686Z,24992.00
2019-06-08T06:53:03.687Z,26016.00
2019-06-08T06:54:03.737Z,24064.00
2019-06-08T06:55:03.667Z,21696.00
2019-06-08T06:56:03.649Z,20736.00
2019-06-08T06:57:03.652Z,21568.00
2019-06-08T06:58:03.664Z,21056.00
2019-06-08T06:59:03.609Z,19936.00
2019-06-08T07:00:03.626Z,20352.00
2019-06-08T07:01:03.603Z,21376.00
2019-06-08T07:02:03.584Z,22016.00
2019-06-08T07:03:03.837Z,21504.00
2019-06-08T07:04:03.566Z,20256.00
2019-06-08T07:05:03.573Z,21120.00
2019-06-08T07:06:03.535Z,22752.00
2019-06-08T07:07:03.570Z,23296.00
2019-06-08T07:08:03.549Z,24320.00
2019-06-08T07:09:03.531Z,25600.00
2019-06-08T07:10:03.517Z,24864.00
2019-06-08T07:11:03.485Z,26048.00
2019-06-08T07:12:03.496Z,33120.00
2019-06-08T07:13:03.476Z,28256.00
2019-06-08T07:14:03.501Z,23552.00
2019-06-08T07:15:03.442Z,23072.00
2019-06-08T07:16:17.892Z,23904.00
2019-06-08T07:17:04.435Z,24896.00
2019-06-08T07:18:03.430Z,25024.00
2019-06-08T07:19:03.524Z,27648.00
2019-06-08T07:20:03.418Z,32288.00
2019-06-08T07:21:03.426Z,28992.00
2019-06-08T07:22:03.369Z,23424.00
2019-06-08T07:23:03.370Z,19392.00
2019-06-08T07:24:03.346Z,19808.00
2019-06-08T07:25:03.373Z,22048.00
2019-06-08T07:26:03.318Z,21152.00
2019-06-08T07:27:03.327Z,18112.00
2019-06-08T07:28:03.302Z,15176.00
2019-06-08T07:29:03.313Z,10088.00
2019-06-08T07:30:03.510Z,8412.00
2019-06-08T07:31:03.260Z,9164.00
2019-06-08T07:32:03.269Z,12432.00
2019-06-08T07:33:03.266Z,69408.00
2019-06-08T07:34:03.301Z,67616.00
2019-06-08T07:35:03.251Z,58400.00
2019-06-08T07:36:03.240Z,73376.00
2019-06-08T07:37:03.227Z,53952.00
2019-06-08T07:38:03.208Z,47456.00
2019-06-08T07:39:03.181Z,80672.00
2019-06-08T07:40:03.185Z,63168.00
2019-06-08T07:41:03.212Z,76192.00
2019-06-08T07:42:03.169Z,74176.00
2019-06-08T07:43:03.151Z,39680.00
2019-06-08T07:44:03.147Z,73376.00
2019-06-08T07:45:03.144Z,46272.00
2019-06-08T07:46:03.133Z,19328.00
2019-06-08T07:47:03.110Z,79968.00
2019-06-08T07:48:03.109Z,55424.00
2019-06-08T07:49:03.094Z,17792.00
2019-06-08T07:50:04.759Z,20480.00
2019-06-08T07:51:03.106Z,74496.00
2019-06-08T07:52:10.294Z,73696.00
2019-06-08T07:53:04.033Z,72128.00
2019-06-08T07:54:03.026Z,73472.00
2019-06-08T07:55:03.013Z,72832.00
2019-06-08T07:56:03.010Z,16328.00
2019-06-08T07:57:03.046Z,21696.00
2019-06-08T07:58:02.987Z,23104.00
2019-06-08T07:59:02.999Z,19968.00
2019-06-08T08:00:09.092Z,25472.00
2019-06-08T08:01:07.979Z,32032.00
2019-06-08T08:02:02.968Z,91456.00
2019-06-08T08:03:02.949Z,19648.00
2019-06-08T08:04:02.929Z,26016.00
2019-06-08T08:05:02.921Z,28160.00
2019-06-08T08:06:02.912Z,48576.00
2019-06-08T08:07:02.945Z,33792.00
2019-06-08T08:08:02.909Z,28288.00
2019-06-08T08:09:02.884Z,28608.00
2019-06-08T08:10:02.945Z,27808.00
2019-06-08T08:11:02.862Z,25376.00
2019-06-08T08:12:02.837Z,27776.00
2019-06-08T08:13:02.903Z,25792.00
2019-06-08T08:14:02.809Z,28448.00
2019-06-08T08:15:02.798Z,29568.00
2019-06-08T08:16:02.804Z,23168.00
2019-06-08T08:17:02.788Z,24416.00
2019-06-08T08:18:02.796Z,23616.00
2019-06-08T08:19:02.757Z,21728.00
2019-06-08T08:20:02.769Z,24800.00
2019-06-08T08:21:11.906Z,101472.00
2019-06-08T08:22:19.474Z,30048.00
2019-06-08T08:23:06.243Z,105024.00
2019-06-08T08:24:03.774Z,29568.00
2019-06-08T08:25:04.904Z,25376.00
2019-06-08T08:26:02.706Z,25600.00
2019-06-08T08:27:03.790Z,29120.00
2019-06-08T08:28:02.675Z,23936.00
2019-06-08T08:29:03.451Z,22816.00
2019-06-08T08:30:02.644Z,82400.00
2019-06-08T08:31:02.638Z,94240.00
2019-06-08T08:32:02.634Z,31296.00
2019-06-08T08:33:03.274Z,31104.00
2019-06-08T08:34:05.506Z,33568.00
2019-06-08T08:35:03.129Z,37728.00
2019-06-08T08:36:02.604Z,46304.00
2019-06-08T08:37:06.258Z,39744.00
2019-06-08T08:38:04.620Z,36672.00
2019-06-08T08:39:02.679Z,29888.00
2019-06-08T08:40:02.598Z,26592.00
2019-06-08T08:41:07.388Z,30304.00
2019-06-08T08:42:05.383Z,29184.00
2019-06-08T08:43:02.508Z,34176.00
2019-06-08T08:44:04.713Z,37056.00
2019-06-08T08:45:05.102Z,43616.00
2019-06-08T08:46:02.488Z,34144.00
2019-06-08T08:47:02.926Z,32224.00
2019-06-08T08:48:20.447Z,27488.00
2019-06-08T08:49:09.542Z,23520.00
2019-06-08T08:50:03.441Z,21632.00
2019-06-08T08:51:03.675Z,24320.00
2019-06-08T08:52:02.417Z,24768.00
2019-06-08T08:53:02.535Z,24640.00
2019-06-08T08:54:05.208Z,24032.00
2019-06-08T08:55:02.386Z,24672.00
2019-06-08T08:56:02.662Z,27392.00
2019-06-08T08:57:05.069Z,25536.00
2019-06-08T08:58:02.358Z,26048.00
2019-06-08T08:59:02.879Z,24736.00
2019-06-08T09:00:04.912Z,22368.00
2019-06-08T09:01:03.726Z,22560.00
2019-06-08T09:02:03.065Z,21376.00
2019-06-08T09:03:29.118Z,20832.00
2019-06-08T09:04:05.088Z,20384.00
2019-06-08T09:05:03.724Z,22336.00
2019-06-08T09:06:03.878Z,22016.00
2019-06-08T09:07:05.629Z,20416.00
2019-06-08T09:08:03.977Z,23168.00
2019-06-08T09:09:03.658Z,25344.00
2019-06-08T09:10:03.599Z,22592.00
2019-06-08T09:11:03.663Z,21440.00
2019-06-08T09:12:04.305Z,23200.00
2019-06-08T09:13:04.523Z,26176.00
2019-06-08T09:14:05.112Z,29504.00
2019-06-08T09:15:03.956Z,28352.00
2019-06-08T09:16:03.921Z,27232.00
2019-06-08T09:17:03.486Z,26592.00
2019-06-08T09:18:03.779Z,28544.00
2019-06-08T09:19:04.273Z,31328.00
2019-06-08T09:20:03.831Z,27744.00
2019-06-08T09:21:02.894Z,27360.00
2019-06-08T09:22:03.664Z,26112.00
2019-06-08T09:23:10.528Z,38880.00
2019-06-08T09:24:04.057Z,60992.00
2019-06-08T09:25:04.303Z,29408.00
2019-06-08T09:26:08.950Z,27936.00
2019-06-08T09:27:04.311Z,28800.00
2019-06-08T09:28:04.644Z,26592.00
2019-06-08T09:29:05.037Z,27968.00
2019-06-08T09:30:04.686Z,34400.00
2019-06-08T09:31:03.990Z,29152.00
2019-06-08T09:32:03.471Z,22016.00
2019-06-08T09:33:02.975Z,21792.00
2019-06-08T09:34:09.134Z,26688.00
2019-06-08T09:35:04.819Z,31968.00
2019-06-08T09:36:04.711Z,35552.00
2019-06-08T09:37:03.482Z,27680.00
2019-06-08T09:38:04.575Z,41280.00
2019-06-08T09:39:04.451Z,38240.00
2019-06-08T09:40:02.594Z,40128.00
2019-06-08T09:41:04.849Z,42176.00
2019-06-08T09:42:03.597Z,23712.00
2019-06-08T09:43:06.084Z,21024.00
2019-06-08T09:44:05.307Z,22336.00
2019-06-08T09:45:04.281Z,31936.00
2019-06-08T09:46:04.194Z,33888.00
2019-06-08T09:47:07.023Z,29536.00
2019-06-08T09:48:05.509Z,26624.00
2019-06-08T09:49:06.474Z,21760.00
2019-06-08T09:50:04.557Z,21312.00
2019-06-08T09:51:04.378Z,22400.00
2019-06-08T09:52:03.383Z,19648.00
2019-06-08T09:53:14.796Z,19648.00
2019-06-08T09:54:06.041Z,31072.00
2019-06-08T09:55:03.941Z,24576.00
2019-06-08T09:56:06.133Z,23840.00
2019-06-08T09:57:04.360Z,22272.00
2019-06-08T09:58:05.089Z,25376.00
2019-06-08T09:59:06.062Z,24928.00
2019-06-08T10:00:14.007Z,24928.00
2019-06-08T10:01:04.904Z,23904.00
2019-06-08T10:02:07.401Z,21184.00
2019-06-08T10:03:05.903Z,24032.00
2019-06-08T10:04:03.756Z,28544.00
2019-06-08T10:05:04.051Z,29536.00
2019-06-08T10:06:06.875Z,33824.00
2019-06-08T10:07:03.898Z,36320.00
2019-06-08T10:08:02.849Z,34496.00
2019-06-08T10:09:02.777Z,32800.00
2019-06-08T10:10:03.145Z,33376.00
2019-06-08T10:11:04.389Z,33024.00
2019-06-08T10:12:04.528Z,31936.00
2019-06-08T10:13:04.799Z,24928.00
2019-06-08T10:14:04.741Z,26304.00
2019-06-08T10:15:02.718Z,32960.00
2019-06-08T10:16:03.620Z,34240.00
2019-06-08T10:17:03.866Z,35616.00
2019-06-08T10:18:03.165Z,37184.00
2019-06-08T10:19:03.919Z,34240.00
2019-06-08T10:20:03.427Z,30912.00
2019-06-08T10:21:03.461Z,39776.00
2019-06-08T10:22:02.929Z,33792.00
2019-06-08T10:23:04.786Z,29152.00
2019-06-08T10:24:04.706Z,28320.00
2019-06-08T10:25:04.473Z,33408.00
2019-06-08T10:26:03.630Z,36096.00
2019-06-08T10:27:01.456Z,34336.00
2019-06-08T10:28:10.125Z,32704.00
2019-06-08T10:29:05.133Z,32128.00
2019-06-08T10:30:03.354Z,32832.00
2019-06-08T10:31:03.305Z,36832.00
2019-06-08T10:32:01.585Z,33856.00
2019-06-08T10:33:03.520Z,29664.00
2019-06-08T10:34:03.453Z,32704.00
2019-06-08T10:35:03.634Z,43424.00
2019-06-08T10:36:02.347Z,55872.00
2019-06-08T10:37:06.431Z,34112.00
2019-06-08T10:38:06.507Z,32192.00
2019-06-08T10:39:05.694Z,52800.00
2019-06-08T10:40:05.125Z,29184.00
2019-06-08T10:41:06.585Z,27584.00
2019-06-08T10:42:03.609Z,34496.00
2019-06-08T10:43:02.761Z,55136.00
2019-06-08T10:44:01.369Z,38400.00
2019-06-08T10:45:07.602Z,42976.00
2019-06-08T10:46:08.419Z,43616.00
2019-06-08T10:47:04.062Z,41376.00
2019-06-08T10:48:02.868Z,40928.00
2019-06-08T10:49:01.971Z,43488.00
2019-06-08T10:50:06.444Z,41760.00
2019-06-08T10:51:05.072Z,38016.00
2019-06-08T10:52:03.087Z,30784.00
2019-06-08T10:53:04.001Z,30112.00
2019-06-08T10:54:02.191Z,33280.00
2019-06-08T10:55:03.299Z,28288.00
2019-06-08T10:56:01.681Z,25088.00
2019-06-08T10:57:04.095Z,25088.00
2019-06-08T10:58:02.285Z,26784.00
2019-06-08T10:59:03.296Z,28032.00
2019-06-08T11:00:02.993Z,26560.00
2019-06-08T11:01:04.238Z,25728.00
2019-06-08T11:02:03.947Z,29984.00
2019-06-08T11:03:05.366Z,36352.00
2019-06-08T11:04:01.923Z,44960.00
2019-06-08T11:05:04.716Z,48864.00
2019-06-08T11:06:03.258Z,48416.00
2019-06-08T11:07:05.587Z,50880.00
2019-06-08T11:08:02.956Z,102144.00
2019-06-08T11:09:05.207Z,94304.00
2019-06-08T11:10:02.451Z,51808.00
2019-06-08T11:11:01.553Z,48160.00
2019-06-08T11:12:01.984Z,61280.00
2019-06-08T11:13:05.189Z,48640.00
2019-06-08T11:14:03.617Z,37664.00
2019-06-08T11:15:02.842Z,52992.00
2019-06-08T11:16:02.429Z,43392.00
2019-06-08T11:17:00.895Z,34368.00
2019-06-08T11:18:03.520Z,37920.00
2019-06-08T11:19:02.641Z,54656.00
2019-06-08T11:20:02.337Z,46592.00
2019-06-08T11:21:02.070Z,67104.00
2019-06-08T11:22:03.780Z,86688.00
2019-06-08T11:23:02.459Z,45184.00
2019-06-08T11:24:13.881Z,63968.00
2019-06-08T11:25:02.480Z,45088.00
2019-06-08T11:26:04.590Z,120064.00
2019-06-08T11:27:03.171Z,47104.00
2019-06-08T11:28:01.796Z,36832.00
2019-06-08T11:29:01.525Z,36832.00
2019-06-08T11:30:05.890Z,35296.00
2019-06-08T11:31:01.884Z,30944.00
2019-06-08T11:32:01.925Z,29792.00
2019-06-08T11:33:02.098Z,33088.00
2019-06-08T11:34:02.267Z,31712.00
2019-06-08T11:35:01.912Z,28960.00
2019-06-08T11:36:02.904Z,27456.00
2019-06-08T11:37:03.226Z,25120.00
2019-06-08T11:38:02.130Z,27232.00
2019-06-08T11:39:02.255Z,25344.00
2019-06-08T11:40:02.061Z,24512.00
2019-06-08T11:41:04.054Z,24640.00
2019-06-08T11:42:02.220Z,26272.00
2019-06-08T11:43:01.116Z,31008.00
2019-06-08T11:44:02.078Z,41088.00
2019-06-08T11:45:00.541Z,36448.00
2019-06-08T11:46:00.633Z,36672.00
2019-06-08T11:47:00.571Z,52768.00
2019-06-08T11:48:00.563Z,51872.00
2019-06-08T11:49:01.156Z,56096.00
2019-06-08T11:50:00.631Z,53696.00
2019-06-08T11:51:00.621Z,38816.00
2019-06-08T11:52:00.523Z,35840.00
2019-06-08T11:53:01.761Z,110528.00
2019-06-08T11:54:01.056Z,32672.00
2019-06-08T11:55:02.562Z,87488.00
2019-06-08T11:56:01.180Z,38112.00
2019-06-08T11:57:00.784Z,54368.00
2019-06-08T11:58:00.885Z,129344.00
2019-06-08T11:59:01.057Z,59712.00
2019-06-08T12:00:01.185Z,45568.00
2019-06-08T12:01:03.302Z,124576.00
2019-06-08T12:02:01.757Z,38208.00
2019-06-08T12:03:01.988Z,41888.00
2019-06-08T12:04:01.364Z,53056.00
2019-06-08T12:05:00.325Z,57184.00
2019-06-08T12:06:00.323Z,57504.00
2019-06-08T12:07:00.324Z,47360.00
2019-06-08T12:08:00.291Z,51648.00
2019-06-08T12:09:00.405Z,43936.00
2019-06-08T12:10:00.265Z,123008.00